createdAt,value
2023-02-23T04:37:08.145Z,48.15
2023-02-23T04:47:44.650Z,49.17
2023-02-23T04:58:20.650Z,64.05
2023-02-23T05:08:56.143Z,52.83
2023-02-23T05:19:31.852Z,58.72
2023-02-23T05:30:09.803Z,67.72
2023-02-23T05:40:45.609Z,60.97
2023-02-23T05:51:21.852Z,62.47
2023-02-23T06:01:57.231Z,64.80
2023-02-23T06:12:33.043Z,69.30
2023-02-23T06:23:08.935Z,69.85
2023-02-23T06:33:44.694Z,72.55
2023-02-23T06:44:22.091Z,70.20
2023-02-23T06:54:57.899Z,67.38
2023-02-23T07:05:33.717Z,77.85
2023-02-23T07:16:09.736Z,69.78
2023-02-23T07:26:47.053Z,64.93
2023-02-23T07:37:22.425Z,71.40
2023-02-23T07:47:59.269Z,72.82
2023-02-23T07:58:35.185Z,68.05
2023-02-23T08:09:11.741Z,67.97
2023-02-23T08:19:47.336Z,63.95
2023-02-23T08:30:24.133Z,63.45
2023-02-23T08:41:01.627Z,64.45
2023-02-23T08:51:37.054Z,67.22
2023-02-23T09:02:13.895Z,61.15
2023-02-23T09:12:49.691Z,58.17
2023-02-23T09:23:29.369Z,49.55
2023-02-23T09:34:05.245Z,54.83
2023-02-23T09:45:01.119Z,53.38
2023-02-23T09:55:39.627Z,43.95
2023-02-23T10:06:17.864Z,48.47
2023-02-23T10:17:20.330Z,41.90
2023-02-23T10:27:58.316Z,44.53
2023-02-23T10:38:33.942Z,45.15
2023-02-23T10:49:22.428Z,36.28
2023-02-23T11:00:27.657Z,32.63
2023-02-23T11:11:15.848Z,28.35
2023-02-23T11:21:52.624Z,26.40
2023-02-23T11:32:31.994Z,17.98
2023-02-23T11:43:13.565Z,20.30
2023-02-23T11:53:49.282Z,15.40
2023-02-23T12:04:38.507Z,19.17
2023-02-23T12:15:24.754Z,12.57
2023-02-23T12:26:20.540Z,7.78
2023-02-23T12:37:07.376Z,7.53
2023-02-23T12:48:07.494Z,9.23
2023-02-23T13:09:53.802Z,5.18
2023-02-23T13:20:49.992Z,5.93
2023-02-23T13:31:39.401Z,11.38
2023-02-23T13:42:20.860Z,9.13
2023-02-23T13:53:04.626Z,8.55
2023-02-23T14:03:47.127Z,8.35
2023-02-23T14:14:32.802Z,9.27
2023-02-23T14:25:33.513Z,9.30
2023-02-23T14:36:21.240Z,10.05
2023-02-23T14:47:08.608Z,10.18
2023-02-23T14:57:44.628Z,12.18
2023-02-23T15:08:26.255Z,8.60
2023-02-23T15:19:32.036Z,7.55
2023-02-23T15:30:30.859Z,9.25
2023-02-23T15:41:15.227Z,9.10
2023-02-23T15:51:57.274Z,10.18
2023-02-23T16:02:35.682Z,8.70
2023-02-23T16:13:13.900Z,8.45
2023-02-23T16:23:52.576Z,10.83
2023-02-23T16:34:37.075Z,9.90
2023-02-23T16:45:17.382Z,9.85
2023-02-23T16:55:55.242Z,15.48
2023-02-23T17:06:30.702Z,16.63
2023-02-23T17:17:08.762Z,14.15
2023-02-23T17:27:44.790Z,16.92
2023-02-23T17:38:21.497Z,15.98
2023-02-23T17:48:56.915Z,16.00
2023-02-23T17:59:33.915Z,18.95
2023-02-23T18:10:11.340Z,17.98
2023-02-23T18:20:56.281Z,21.58
2023-02-23T18:31:33.331Z,19.17
2023-02-23T18:42:09.012Z,20.08
2023-02-23T18:52:50.767Z,22.10
2023-02-23T19:03:27.256Z,17.77
2023-02-23T19:14:05.892Z,21.20
2023-02-23T19:24:41.539Z,21.17
2023-02-23T19:35:17.582Z,23.05
2023-02-23T19:45:54.422Z,19.15
2023-02-23T19:56:30.269Z,17.83
2023-02-23T20:07:07.426Z,26.63
2023-02-23T20:17:43.057Z,25.42
2023-02-23T20:28:18.519Z,21.90
2023-02-23T20:38:54.361Z,23.15
2023-02-23T20:49:30.122Z,23.70
2023-02-23T21:00:09.421Z,23.75
2023-02-23T21:10:45.102Z,26.80
2023-02-23T21:21:20.918Z,29.17
2023-02-23T21:31:57.015Z,23.45
2023-02-23T21:42:32.433Z,22.75
2023-02-23T21:53:09.556Z,26.40
2023-02-23T22:03:45.417Z,29.73
2023-02-23T22:14:22.159Z,28.85
2023-02-23T22:24:57.788Z,28.65
